createdAt,value
2022-11-09T00:00:31.896Z,2.05
2022-11-09T00:01:35.001Z,1.80
2022-11-09T00:02:41.538Z,2.16
2022-11-09T00:03:46.965Z,2.28
2022-11-09T00:04:49.084Z,2.23
2022-11-09T00:05:58.679Z,2.19
2022-11-09T00:07:01.675Z,2.18
2022-11-09T00:08:07.294Z,2.08
2022-11-09T00:09:11.775Z,2.32
2022-11-09T00:10:13.855Z,2.05
2022-11-09T00:11:17.017Z,1.96
2022-11-09T00:12:19.134Z,1.73
2022-11-09T00:13:23.015Z,1.70
2022-11-09T00:14:25.447Z,1.61
2022-11-09T00:15:29.350Z,1.55
2022-11-09T00:16:31.460Z,2.09
2022-11-09T00:17:34.584Z,1.69
2022-11-09T00:18:37.836Z,1.57
2022-11-09T00:19:40.926Z,1.72
2022-11-09T00:20:47.343Z,1.78
2022-11-09T00:21:51.336Z,1.65
2022-11-09T00:22:53.453Z,1.71
2022-11-09T00:23:56.530Z,1.61
2022-11-09T00:25:00.019Z,1.97
2022-11-09T00:26:04.241Z,1.50
2022-11-09T00:27:06.350Z,1.44
2022-11-09T00:28:09.518Z,1.32
2022-11-09T00:29:11.625Z,1.16
2022-11-09T00:30:15.474Z,1.07
2022-11-09T00:31:20.740Z,1.03
2022-11-09T00:32:27.450Z,0.92
2022-11-09T00:33:31.415Z,1.07
2022-11-09T00:34:34.508Z,1.18
2022-11-09T00:35:38.926Z,1.07
2022-11-09T00:36:42.346Z,1.38
2022-11-09T00:37:44.426Z,1.29
2022-11-09T00:38:51.205Z,1.31
2022-11-09T00:39:53.260Z,1.67
2022-11-09T00:41:01.796Z,1.91
2022-11-09T00:42:04.089Z,1.99
2022-11-09T00:43:07.161Z,2.60
2022-11-09T00:44:09.815Z,2.49
2022-11-09T00:45:13.204Z,2.67
2022-11-09T00:46:15.697Z,2.27
2022-11-09T00:47:18.911Z,2.30
2022-11-09T00:48:21.100Z,2.49
2022-11-09T00:49:24.246Z,2.18
2022-11-09T00:50:26.321Z,2.31
2022-11-09T00:51:29.384Z,1.57
2022-11-09T00:52:31.620Z,2.56
2022-11-09T00:53:35.292Z,2.48
2022-11-09T00:54:37.358Z,2.17
2022-11-09T00:55:40.440Z,1.83
2022-11-09T00:56:43.993Z,1.43
2022-11-09T00:57:49.996Z,1.86
2022-11-09T00:58:55.900Z,2.34
2022-11-09T00:59:58.058Z,1.99
2022-11-09T01:01:07.874Z,1.51
2022-11-09T01:02:11.046Z,1.64
2022-11-09T01:03:13.281Z,1.77
2022-11-09T01:04:16.405Z,1.48
2022-11-09T01:05:19.105Z,2.39
2022-11-09T01:06:23.806Z,1.56
2022-11-09T01:07:26.296Z,1.25
2022-11-09T01:08:29.442Z,1.06
2022-11-09T01:09:31.728Z,1.24
2022-11-09T01:10:35.308Z,0.88
2022-11-09T01:11:38.199Z,1.20
2022-11-09T01:12:42.674Z,1.50
2022-11-09T01:13:45.464Z,2.25
2022-11-09T01:14:48.633Z,2.07
2022-11-09T01:15:53.269Z,2.67
2022-11-09T01:16:56.413Z,2.38
2022-11-09T01:17:58.525Z,2.32
2022-11-09T01:19:01.689Z,2.36
2022-11-09T01:20:04.754Z,2.44
2022-11-09T01:21:11.889Z,2.82
2022-11-09T01:22:14.029Z,2.43
2022-11-09T01:23:19.067Z,2.15
2022-11-09T01:24:21.438Z,2.58
2022-11-09T01:25:24.540Z,2.67
2022-11-09T01:26:26.800Z,2.47
2022-11-09T01:27:29.908Z,2.33
2022-11-09T01:28:33.567Z,2.53
2022-11-09T01:29:36.737Z,2.69
2022-11-09T01:30:41.544Z,2.86
2022-11-09T01:31:44.724Z,2.37
2022-11-09T01:32:46.772Z,2.67
2022-11-09T01:33:50.101Z,2.57
2022-11-09T01:34:52.222Z,2.73
2022-11-09T01:35:55.489Z,2.29
2022-11-09T01:36:57.610Z,2.76
2022-11-09T01:38:00.814Z,2.20
2022-11-09T01:39:04.129Z,1.84
2022-11-09T01:40:07.308Z,2.44
2022-11-09T01:41:15.676Z,2.26
2022-11-09T01:42:23.508Z,2.44
2022-11-09T01:43:26.885Z,2.11
2022-11-09T01:44:31.143Z,2.29
2022-11-09T01:45:34.313Z,2.17
2022-11-09T01:46:43.604Z,2.17
2022-11-09T01:47:50.378Z,2.50
2022-11-09T01:49:00.176Z,2.58
2022-11-09T01:50:03.438Z,2.62
2022-11-09T01:51:15.614Z,3.04
2022-11-09T01:52:24.415Z,2.51
2022-11-09T01:53:34.739Z,2.13
2022-11-09T01:54:43.388Z,1.67
2022-11-09T01:55:51.433Z,1.51
2022-11-09T01:57:00.922Z,1.76
2022-11-09T01:58:08.741Z,1.99
2022-11-09T01:59:16.827Z,1.36
2022-11-09T02:00:20.789Z,1.92
2022-11-09T02:01:24.208Z,1.86
2022-11-09T02:02:26.585Z,1.60
2022-11-09T02:03:35.371Z,1.96
2022-11-09T02:04:44.926Z,1.63
2022-11-09T02:05:50.473Z,1.60
2022-11-09T02:06:57.541Z,2.22
2022-11-09T02:08:04.491Z,2.43
2022-11-09T02:09:17.279Z,2.76
2022-11-09T02:10:32.872Z,2.91
2022-11-09T02:11:37.639Z,2.19
2022-11-09T02:12:41.137Z,2.42
2022-11-09T02:13:48.162Z,2.56
2022-11-09T02:14:53.571Z,2.18
2022-11-09T02:15:58.116Z,2.59
2022-11-09T02:17:00.193Z,2.17
2022-11-09T02:18:05.235Z,2.62
2022-11-09T02:19:08.406Z,2.57
2022-11-09T02:20:13.476Z,2.29
2022-11-09T02:21:16.609Z,2.42
2022-11-09T02:22:18.989Z,2.42
2022-11-09T02:23:22.798Z,2.37
2022-11-09T02:24:25.814Z,2.19
2022-11-09T02:25:28.965Z,2.25
2022-11-09T02:26:41.112Z,2.58
2022-11-09T02:27:44.634Z,2.59
2022-11-09T02:28:49.039Z,2.54
2022-11-09T02:29:53.161Z,2.23
2022-11-09T02:30:59.157Z,2.42
2022-11-09T02:32:07.095Z,2.24
2022-11-09T02:33:10.501Z,2.43
2022-11-09T02:34:20.389Z,2.62
2022-11-09T02:35:23.872Z,2.17
2022-11-09T02:36:26.990Z,2.04
2022-11-09T02:37:34.901Z,2.37
2022-11-09T02:38:37.941Z,2.61
2022-11-09T02:39:40.085Z,2.42
2022-11-09T02:40:46.731Z,2.39
2022-11-09T02:41:53.786Z,2.71
2022-11-09T02:42:58.313Z,2.76
2022-11-09T02:44:01.789Z,2.99
2022-11-09T02:45:08.284Z,2.82
2022-11-09T02:46:10.410Z,2.90
2022-11-09T02:47:13.687Z,3.10
2022-11-09T02:48:16.788Z,2.75
2022-11-09T02:49:19.186Z,3.03
2022-11-09T02:50:22.478Z,3.16
2022-11-09T02:51:25.901Z,3.34
2022-11-09T02:52:28.959Z,2.92
2022-11-09T02:53:31.913Z,2.65
2022-11-09T02:54:35.287Z,2.84
2022-11-09T02:55:37.387Z,2.80
2022-11-09T02:56:40.495Z,2.37
2022-11-09T02:57:42.586Z,2.63
2022-11-09T02:58:46.329Z,2.55
2022-11-09T02:59:48.392Z,2.61
2022-11-09T03:00:51.488Z,2.57
2022-11-09T03:01:53.648Z,2.78
2022-11-09T03:02:57.212Z,2.51
2022-11-09T03:03:59.319Z,2.65
2022-11-09T03:05:02.413Z,2.49
2022-11-09T03:06:05.266Z,3.02
2022-11-09T03:07:10.461Z,2.45
2022-11-09T03:08:12.629Z,2.57
2022-11-09T03:09:18.975Z,2.44
2022-11-09T03:10:21.071Z,2.35
2022-11-09T03:11:24.152Z,2.34
2022-11-09T03:12:29.091Z,2.32
2022-11-09T03:13:32.141Z,2.10
2022-11-09T03:14:34.270Z,1.96
2022-11-09T03:15:38.418Z,2.19
2022-11-09T03:16:40.529Z,2.42
2022-11-09T03:17:43.607Z,1.69
2022-11-09T03:18:45.707Z,2.22
2022-11-09T03:19:48.861Z,2.28
2022-11-09T03:20:51.950Z,2.00
2022-11-09T03:21:54.021Z,2.37
2022-11-09T03:23:00.700Z,2.62
2022-11-09T03:24:03.394Z,2.32
2022-11-09T03:25:07.696Z,2.42
2022-11-09T03:26:10.172Z,2.55
2022-11-09T03:27:13.412Z,2.46
2022-11-09T03:28:16.544Z,2.47
2022-11-09T03:29:18.627Z,2.93
2022-11-09T03:30:21.717Z,2.66
2022-11-09T03:31:23.891Z,2.22
2022-11-09T03:32:26.964Z,2.45
2022-11-09T03:33:29.132Z,2.58
2022-11-09T03:34:32.280Z,2.43
2022-11-09T03:35:34.372Z,2.27
2022-11-09T03:36:37.435Z,2.50
2022-11-09T03:37:39.572Z,2.12
2022-11-09T03:38:44.033Z,2.12
2022-11-09T03:39:46.104Z,1.87
2022-11-09T03:40:49.300Z,1.96
2022-11-09T03:41:51.367Z,1.89
2022-11-09T03:42:54.470Z,2.07
2022-11-09T03:43:56.572Z,1.64
2022-11-09T03:44:59.663Z,1.71
2022-11-09T03:46:01.809Z,1.89
2022-11-09T03:47:05.070Z,1.93
2022-11-09T03:48:08.209Z,1.80
2022-11-09T03:49:10.439Z,1.73
2022-11-09T03:50:15.880Z,1.70
2022-11-09T03:51:19.884Z,1.65
2022-11-09T03:52:23.111Z,1.58
2022-11-09T03:53:25.279Z,1.36
2022-11-09T03:54:29.707Z,1.58
2022-11-09T03:55:31.859Z,1.58
2022-11-09T03:56:34.975Z,1.49
2022-11-09T03:57:37.124Z,1.07
2022-11-09T03:58:40.193Z,1.36
2022-11-09T03:59:42.270Z,1.25
2022-11-09T04:00:45.360Z,1.13
2022-11-09T04:01:47.998Z,1.11
2022-11-09T04:02:51.390Z,1.27
2022-11-09T04:03:53.453Z,1.15
2022-11-09T04:04:56.550Z,1.04
2022-11-09T04:05:58.934Z,0.66
2022-11-09T04:07:02.108Z,0.67
2022-11-09T04:08:04.801Z,0.70
2022-11-09T04:09:07.948Z,1.21
2022-11-09T04:10:11.494Z,1.10
2022-11-09T04:11:14.581Z,0.80
2022-11-09T04:12:16.766Z,1.05
2022-11-09T04:13:20.035Z,1.13
2022-11-09T04:14:22.589Z,0.99
2022-11-09T04:15:25.638Z,0.96
2022-11-09T04:16:27.733Z,1.00
2022-11-09T04:17:30.813Z,1.51
2022-11-09T04:18:32.895Z,1.45
2022-11-09T04:19:36.370Z,1.29
2022-11-09T04:20:38.501Z,1.44
2022-11-09T04:21:41.572Z,1.26
2022-11-09T04:22:43.732Z,1.19
2022-11-09T04:23:48.751Z,1.52
2022-11-09T04:24:50.928Z,1.39
2022-11-09T04:25:58.634Z,1.32
2022-11-09T04:27:00.770Z,1.59
2022-11-09T04:28:06.314Z,1.37
2022-11-09T04:29:08.455Z,1.35
2022-11-09T04:30:12.163Z,1.32
2022-11-09T04:31:16.653Z,1.31
2022-11-09T04:32:18.815Z,1.42
2022-11-09T04:33:22.418Z,1.23
2022-11-09T04:34:24.724Z,1.20
2022-11-09T04:35:29.473Z,1.47
2022-11-09T04:36:31.831Z,1.40
2022-11-09T04:37:34.947Z,1.58
2022-11-09T04:38:37.126Z,1.28
2022-11-09T04:39:40.184Z,1.42
2022-11-09T04:40:42.591Z,1.16
2022-11-09T04:41:47.181Z,1.20
2022-11-09T04:42:49.358Z,1.12
2022-11-09T04:43:52.438Z,1.24
2022-11-09T04:44:54.759Z,1.37
2022-11-09T04:46:04.533Z,2.06
2022-11-09T04:47:06.638Z,3.00
2022-11-09T04:48:15.089Z,1.81
2022-11-09T04:49:17.161Z,1.18
2022-11-09T04:50:20.795Z,1.28
2022-11-09T04:51:22.913Z,1.22
2022-11-09T04:52:25.975Z,1.10
2022-11-09T04:53:28.502Z,1.14
2022-11-09T04:54:31.587Z,1.12
2022-11-09T04:55:33.737Z,1.26
2022-11-09T04:56:36.862Z,1.15
2022-11-09T04:57:40.348Z,1.33
2022-11-09T04:58:43.403Z,1.25
2022-11-09T04:59:45.545Z,1.13
2022-11-09T05:00:48.652Z,1.38
2022-11-09T05:01:50.745Z,1.13
2022-11-09T05:02:53.830Z,1.06
2022-11-09T05:03:57.033Z,1.17
2022-11-09T05:04:59.204Z,1.54
2022-11-09T05:06:22.586Z,1.52
2022-11-09T05:07:24.701Z,1.19
2022-11-09T05:08:27.946Z,1.39
2022-11-09T05:09:30.049Z,1.53
2022-11-09T05:10:33.918Z,1.46
2022-11-09T05:11:37.137Z,1.58
2022-11-09T05:12:45.648Z,1.19
2022-11-09T05:13:48.356Z,1.24
2022-11-09T05:14:51.429Z,1.44
2022-11-09T05:15:54.086Z,1.42
2022-11-09T05:16:57.467Z,1.14
2022-11-09T05:17:59.662Z,1.18
2022-11-09T05:19:02.746Z,1.44
2022-11-09T05:20:05.590Z,1.35
2022-11-09T05:21:08.682Z,1.32
2022-11-09T05:22:29.331Z,1.42
2022-11-09T05:23:49.817Z,1.49
2022-11-09T05:24:52.914Z,1.50
2022-11-09T05:25:55.008Z,1.25
2022-11-09T05:26:58.235Z,1.29
2022-11-09T05:28:01.746Z,1.71
2022-11-09T05:29:07.235Z,1.39
2022-11-09T05:30:10.199Z,1.25
2022-11-09T05:31:13.291Z,1.29
2022-11-09T05:32:15.426Z,1.63
2022-11-09T05:33:18.795Z,1.34
2022-11-09T05:34:38.476Z,1.27
2022-11-09T05:35:40.552Z,1.33
2022-11-09T05:36:43.644Z,1.15
2022-11-09T05:37:48.310Z,1.51
2022-11-09T05:38:51.531Z,1.23
2022-11-09T05:39:53.662Z,1.26
2022-11-09T05:40:56.770Z,1.54
2022-11-09T05:41:58.998Z,1.40
2022-11-09T05:43:03.706Z,1.37
2022-11-09T05:44:05.908Z,1.08
2022-11-09T05:45:35.999Z,1.48
2022-11-09T05:46:34.541Z,1.38
2022-11-09T05:47:41.208Z,1.29
2022-11-09T05:48:45.467Z,1.22
2022-11-09T05:49:47.562Z,1.43
2022-11-09T05:50:50.693Z,1.25
2022-11-09T05:51:53.084Z,1.20
2022-11-09T05:52:58.567Z,1.38
2022-11-09T05:54:00.646Z,1.10
2022-11-09T05:55:03.893Z,1.15
2022-11-09T05:56:11.933Z,1.12
2022-11-09T05:57:15.026Z,1.28
2022-11-09T05:58:18.516Z,1.29
2022-11-09T05:59:21.615Z,1.13
2022-11-09T06:00:24.086Z,1.29
2022-11-09T06:01:27.203Z,1.29
2022-11-09T06:02:31.852Z,0.95
2022-11-09T06:03:35.036Z,1.18
2022-11-09T06:04:37.219Z,1.19
2022-11-09T06:05:41.989Z,1.24
2022-11-09T06:06:44.227Z,1.04
2022-11-09T06:07:47.793Z,1.04
2022-11-09T06:08:51.116Z,1.21
2022-11-09T06:09:53.311Z,1.17
2022-11-09T06:11:00.814Z,0.96
2022-11-09T06:12:02.959Z,1.05
2022-11-09T06:13:06.547Z,1.23
2022-11-09T06:14:09.980Z,1.20
2022-11-09T06:15:13.092Z,0.88
2022-11-09T06:16:15.203Z,0.93
2022-11-09T06:17:18.341Z,1.00
2022-11-09T06:18:20.458Z,0.85
2022-11-09T06:19:23.582Z,0.96
2022-11-09T06:20:27.401Z,0.95
2022-11-09T06:21:30.534Z,1.05
2022-11-09T06:22:32.611Z,1.18
2022-11-09T06:23:35.815Z,0.96
2022-11-09T06:24:37.926Z,0.97
2022-11-09T06:25:41.013Z,1.06
2022-11-09T06:26:43.151Z,1.01
2022-11-09T06:27:46.248Z,0.92
2022-11-09T06:28:48.395Z,0.90
2022-11-09T06:29:52.879Z,1.03
2022-11-09T06:30:58.450Z,1.01
2022-11-09T06:32:01.834Z,0.89
2022-11-09T06:33:05.326Z,0.85
2022-11-09T06:34:08.566Z,0.91
2022-11-09T06:35:12.072Z,0.89
2022-11-09T06:36:16.715Z,0.91
2022-11-09T06:37:18.973Z,0.76
2022-11-09T06:38:22.052Z,0.89
2022-11-09T06:39:25.204Z,1.09
2022-11-09T06:40:27.409Z,1.16
2022-11-09T06:41:30.650Z,0.83
2022-11-09T06:42:32.870Z,0.84
2022-11-09T06:43:37.043Z,0.84
2022-11-09T06:44:41.665Z,0.87
2022-11-09T06:45:45.132Z,0.91
2022-11-09T06:46:48.207Z,1.00
2022-11-09T06:47:50.342Z,1.05
2022-11-09T06:48:54.619Z,0.80
2022-11-09T06:49:56.901Z,0.79
2022-11-09T06:51:01.698Z,0.73
2022-11-09T06:52:04.350Z,0.74
2022-11-09T06:53:10.867Z,0.82
2022-11-09T06:54:14.047Z,0.91
2022-11-09T06:55:16.978Z,1.07
2022-11-09T06:56:20.180Z,0.88
2022-11-09T06:57:22.311Z,1.10
2022-11-09T06:58:25.760Z,1.03
2022-11-09T06:59:28.911Z,1.43
2022-11-09T07:00:31.112Z,2.06
2022-11-09T07:01:40.068Z,2.16
2022-11-09T07:02:45.138Z,2.55
2022-11-09T07:03:48.245Z,1.95
2022-11-09T07:04:52.359Z,1.05
2022-11-09T07:05:55.470Z,1.08
2022-11-09T07:06:57.643Z,1.25
2022-11-09T07:08:01.171Z,1.12
2022-11-09T07:09:04.259Z,1.12
2022-11-09T07:10:07.189Z,1.10
2022-11-09T07:11:13.131Z,0.80
2022-11-09T07:12:15.354Z,0.84
2022-11-09T07:13:18.743Z,0.91
2022-11-09T07:14:23.588Z,0.95
2022-11-09T07:15:26.240Z,0.75
2022-11-09T07:16:29.407Z,0.69
2022-11-09T07:17:35.034Z,0.80
2022-11-09T07:18:38.173Z,1.02
2022-11-09T07:19:40.267Z,0.91
2022-11-09T07:20:43.409Z,0.81
2022-11-09T07:21:46.539Z,0.79
2022-11-09T07:22:49.731Z,0.66
2022-11-09T07:23:53.439Z,0.62
2022-11-09T07:24:55.775Z,0.75
2022-11-09T07:25:59.770Z,0.77
2022-11-09T07:27:01.925Z,0.77
2022-11-09T07:28:06.052Z,0.64
2022-11-09T07:29:08.438Z,0.63
2022-11-09T07:30:12.772Z,0.71
2022-11-09T07:31:15.855Z,0.66
2022-11-09T07:32:17.972Z,0.76
2022-11-09T07:33:25.903Z,0.76
2022-11-09T07:34:28.351Z,0.58
2022-11-09T07:35:31.880Z,0.59
2022-11-09T07:36:36.721Z,0.63
2022-11-09T07:37:38.842Z,0.74
2022-11-09T07:38:42.119Z,0.65
2022-11-09T07:39:44.211Z,0.70
2022-11-09T07:40:47.374Z,0.96
2022-11-09T07:41:50.625Z,0.73
2022-11-09T07:42:52.779Z,0.84
2022-11-09T07:43:56.272Z,0.84
2022-11-09T07:44:58.399Z,0.92
2022-11-09T07:46:05.216Z,0.67
2022-11-09T07:47:07.390Z,0.78
2022-11-09T07:48:12.926Z,0.71
2022-11-09T07:49:18.465Z,0.78
2022-11-09T07:50:20.568Z,0.78
2022-11-09T07:51:23.822Z,0.51
2022-11-09T07:52:25.988Z,0.73
2022-11-09T07:53:29.118Z,0.75
2022-11-09T07:54:32.289Z,0.67
2022-11-09T07:55:36.493Z,0.68
2022-11-09T07:56:40.277Z,0.88
2022-11-09T07:57:44.279Z,0.63
2022-11-09T07:58:47.389Z,0.64
2022-11-09T07:59:51.625Z,0.80
2022-11-09T08:00:55.168Z,0.65
2022-11-09T08:01:59.095Z,0.65
2022-11-09T08:03:01.612Z,0.68
2022-11-09T08:04:06.147Z,0.58
2022-11-09T08:05:09.671Z,0.70
2022-11-09T08:06:18.114Z,0.69
2022-11-09T08:07:23.577Z,0.76
2022-11-09T08:08:26.874Z,0.64
2022-11-09T08:09:30.283Z,0.67
2022-11-09T08:10:37.231Z,0.78
2022-11-09T08:11:40.321Z,0.66
2022-11-09T08:12:42.503Z,0.70
2022-11-09T08:13:45.774Z,0.84
2022-11-09T08:14:47.990Z,0.75
2022-11-09T08:15:51.208Z,0.93
2022-11-09T08:16:53.359Z,0.82
2022-11-09T08:18:00.419Z,0.76
2022-11-09T08:19:03.613Z,0.81
2022-11-09T08:20:07.700Z,0.85
2022-11-09T08:21:12.673Z,0.77
2022-11-09T08:22:14.853Z,0.84
2022-11-09T08:23:20.852Z,0.94
2022-11-09T08:24:23.989Z,0.92
2022-11-09T08:25:43.855Z,1.04
2022-11-09T08:26:47.045Z,0.92
2022-11-09T08:27:50.266Z,1.01
2022-11-09T08:28:53.382Z,0.85
2022-11-09T08:29:55.511Z,0.77
2022-11-09T08:31:01.066Z,0.97
2022-11-09T08:32:04.270Z,1.10
2022-11-09T08:33:07.890Z,1.01
2022-11-09T08:34:12.558Z,0.87
2022-11-09T08:35:20.229Z,0.90
2022-11-09T08:36:26.063Z,0.86
2022-11-09T08:37:28.204Z,1.16
2022-11-09T08:38:33.162Z,1.14
2022-11-09T08:39:36.278Z,1.19
2022-11-09T08:40:39.499Z,1.13
2022-11-09T08:41:42.694Z,1.21
2022-11-09T08:42:45.846Z,1.11
2022-11-09T08:43:48.962Z,0.91
2022-11-09T08:44:51.054Z,1.08
2022-11-09T08:45:54.380Z,1.16
2022-11-09T08:46:57.563Z,1.01
2022-11-09T08:48:01.883Z,1.08
2022-11-09T08:49:05.037Z,1.16
2022-11-09T08:50:10.557Z,1.28
2022-11-09T08:51:13.825Z,1.14
2022-11-09T08:52:18.127Z,0.99
2022-11-09T08:53:21.610Z,1.16
2022-11-09T08:54:24.584Z,1.26
2022-11-09T08:55:27.687Z,1.26
2022-11-09T08:56:30.968Z,1.41
2022-11-09T08:57:34.370Z,1.47
2022-11-09T08:58:37.813Z,1.54
2022-11-09T08:59:40.079Z,1.49
2022-11-09T09:00:43.280Z,1.48
2022-11-09T09:01:46.542Z,1.47
2022-11-09T09:02:49.281Z,1.41
2022-11-09T09:03:52.901Z,1.50
2022-11-09T09:04:55.195Z,1.82
2022-11-09T09:05:58.326Z,1.62
2022-11-09T09:07:01.420Z,2.21
2022-11-09T09:08:07.748Z,2.31
2022-11-09T09:09:11.183Z,1.78
2022-11-09T09:10:14.647Z,1.73
2022-11-09T09:11:17.997Z,1.80
2022-11-09T09:12:20.329Z,1.82
2022-11-09T09:13:23.550Z,1.81
2022-11-09T09:14:27.174Z,1.86
2022-11-09T09:15:30.377Z,1.53
2022-11-09T09:16:34.673Z,1.43
2022-11-09T09:17:37.849Z,1.68
2022-11-09T09:18:40.183Z,1.63
2022-11-09T09:19:48.818Z,1.51
2022-11-09T09:20:53.258Z,1.51
2022-11-09T09:21:55.853Z,1.29
2022-11-09T09:23:00.333Z,1.50
2022-11-09T09:24:04.051Z,1.31
2022-11-09T09:25:09.601Z,1.61
2022-11-09T09:26:12.694Z,1.59
2022-11-09T09:27:16.115Z,1.60
2022-11-09T09:28:19.621Z,1.47
2022-11-09T09:29:21.985Z,1.62
2022-11-09T09:30:25.131Z,1.58
2022-11-09T09:31:28.429Z,1.55
2022-11-09T09:32:30.609Z,1.76
2022-11-09T09:33:34.203Z,1.93
2022-11-09T09:34:37.267Z,1.85
2022-11-09T09:35:40.386Z,1.98
2022-11-09T09:36:47.895Z,1.77
2022-11-09T12:19:07.338Z,1.79
2022-11-09T12:20:42.384Z,2.18
2022-11-09T12:21:56.785Z,2.42
2022-11-09T12:23:40.899Z,1.57
2022-11-09T12:25:14.021Z,2.68
2022-11-09T12:27:10.743Z,1.69
2022-11-09T12:29:03.649Z,1.43
2022-11-09T12:30:32.206Z,1.30
2022-11-09T12:48:44.755Z,1.28
2022-11-09T12:49:49.793Z,1.37
2022-11-09T12:50:54.865Z,1.29
2022-11-09T12:51:59.235Z,1.37
2022-11-09T12:53:06.134Z,1.49
2022-11-09T12:54:11.730Z,1.35
2022-11-09T12:55:20.342Z,1.21
2022-11-09T12:56:30.674Z,1.18
2022-11-09T12:57:34.011Z,1.14
2022-11-09T12:58:44.022Z,1.45
2022-11-09T12:59:50.027Z,1.31
2022-11-09T13:00:57.145Z,1.41
2022-11-09T13:02:01.895Z,1.16
2022-11-09T13:03:08.799Z,1.19
2022-11-09T13:04:19.636Z,1.26
2022-11-09T13:05:34.167Z,1.33
2022-11-09T13:06:37.368Z,1.13
2022-11-09T13:07:50.978Z,0.97
2022-11-09T13:09:01.101Z,1.08
2022-11-09T13:10:05.191Z,1.21
2022-11-09T13:11:11.149Z,1.24
2022-11-09T13:12:29.102Z,1.00
2022-11-09T13:13:32.503Z,1.18
2022-11-09T13:14:37.967Z,1.10
2022-11-09T13:16:06.252Z,1.05
2022-11-09T13:17:57.703Z,1.10
2022-11-09T13:19:00.946Z,1.02
2022-11-09T13:20:56.960Z,1.13
2022-11-09T13:22:01.134Z,1.01
2022-11-09T13:23:59.286Z,1.08
2022-11-09T13:25:00.792Z,1.07
2022-11-09T13:26:06.082Z,1.20
2022-11-09T13:27:37.359Z,1.07
2022-11-09T13:29:11.165Z,1.24
2022-11-09T13:30:50.037Z,1.21
2022-11-09T13:32:36.003Z,1.12
2022-11-09T13:33:40.418Z,1.08
2022-11-09T13:34:46.151Z,1.10
2022-11-09T13:36:22.127Z,1.08
2022-11-09T13:37:55.388Z,1.20
2022-11-09T13:39:34.946Z,1.25
2022-11-09T13:40:44.945Z,1.37
2022-11-09T13:41:48.872Z,1.14
2022-11-09T13:43:00.754Z,1.25
2022-11-09T13:44:17.105Z,1.30
2022-11-09T13:45:34.369Z,1.27
2022-11-09T13:46:40.862Z,1.01
2022-11-09T13:47:52.933Z,1.04
2022-11-09T13:48:56.665Z,1.15
2022-11-09T13:50:01.548Z,1.12
2022-11-09T13:51:07.129Z,1.02
2022-11-09T13:52:42.487Z,1.35
2022-11-09T13:53:59.813Z,1.37
2022-11-09T13:55:06.364Z,1.28
2022-11-09T13:56:27.265Z,1.27
2022-11-09T13:57:33.127Z,1.23
2022-11-09T13:58:40.208Z,1.04
2022-11-09T13:59:49.311Z,1.04
2022-11-09T14:00:52.441Z,1.05
2022-11-09T14:01:58.199Z,1.11
2022-11-09T14:03:03.001Z,1.08
2022-11-09T14:04:06.508Z,1.30
2022-11-09T14:05:23.882Z,1.36
2022-11-09T14:06:29.005Z,1.03
2022-11-09T14:07:35.310Z,1.12
2022-11-09T14:08:44.705Z,1.63
2022-11-09T14:09:57.799Z,1.44
2022-11-09T14:11:51.755Z,1.53
2022-11-09T14:13:15.993Z,1.18
2022-11-09T14:14:54.971Z,1.07
2022-11-09T14:16:06.093Z,1.04
2022-11-09T14:17:19.866Z,0.89
2022-11-09T14:18:40.118Z,1.13
2022-11-09T14:19:57.612Z,1.00
2022-11-09T14:21:14.302Z,1.00
2022-11-09T14:22:20.658Z,1.13
2022-11-09T14:23:28.539Z,0.97
2022-11-09T14:24:34.160Z,0.78
2022-11-09T14:25:37.741Z,1.02
2022-11-09T14:26:39.999Z,1.00
2022-11-09T14:27:48.648Z,0.94
2022-11-09T14:28:52.565Z,0.92
2022-11-09T14:29:59.270Z,1.06
2022-11-09T14:31:03.108Z,1.13
2022-11-09T14:32:25.612Z,1.10
2022-11-09T14:33:30.953Z,1.13
2022-11-09T14:34:33.100Z,1.30
2022-11-09T14:35:39.176Z,1.17
2022-11-09T14:36:43.088Z,1.09
2022-11-09T14:37:45.797Z,1.19
2022-11-09T14:38:49.672Z,1.17
2022-11-09T14:39:54.389Z,0.96
2022-11-09T14:40:57.771Z,1.12
2022-11-09T14:42:02.102Z,1.10
2022-11-09T14:43:23.237Z,1.04
2022-11-09T14:44:32.280Z,1.15
2022-11-09T14:45:35.465Z,1.04
2022-11-09T14:46:37.618Z,1.13
2022-11-09T14:47:44.987Z,0.99
2022-11-09T14:48:53.779Z,0.90
2022-11-09T14:49:56.353Z,1.04
2022-11-09T14:51:03.300Z,1.03
2022-11-09T14:52:07.656Z,0.94
2022-11-09T14:53:17.363Z,1.02
2022-11-09T14:54:26.282Z,1.17
2022-11-09T14:55:29.349Z,1.05
2022-11-09T14:56:34.468Z,1.05
2022-11-09T14:57:38.829Z,1.17
2022-11-09T14:58:44.387Z,1.13
2022-11-09T14:59:48.351Z,1.18
2022-11-09T15:01:06.973Z,1.13
2022-11-09T15:02:13.037Z,1.02
2022-11-09T15:03:27.644Z,0.88
2022-11-09T15:04:31.150Z,0.79
2022-11-09T15:05:39.894Z,0.87
2022-11-09T15:06:49.531Z,1.05
2022-11-09T15:07:53.516Z,0.85
2022-11-09T15:08:59.475Z,1.29
2022-11-09T15:10:07.166Z,0.95
2022-11-09T15:11:09.368Z,1.11
2022-11-09T15:12:16.033Z,0.93
2022-11-09T15:13:20.714Z,0.99
2022-11-09T15:14:30.532Z,1.08
2022-11-09T15:15:38.408Z,0.89
2022-11-09T15:16:42.922Z,0.83
2022-11-09T15:17:48.006Z,0.98
2022-11-09T15:18:51.792Z,0.99
2022-11-09T15:19:57.712Z,1.08
2022-11-09T15:21:19.917Z,0.94
2022-11-09T15:22:51.545Z,0.88
2022-11-09T15:24:06.569Z,0.67
2022-11-09T15:25:21.963Z,0.66
2022-11-09T15:26:37.881Z,0.70
2022-11-09T15:27:40.118Z,0.85
2022-11-09T15:28:49.001Z,0.72
2022-11-09T15:29:51.143Z,0.63
2022-11-09T15:31:16.290Z,0.71
2022-11-09T15:32:20.008Z,0.83
2022-11-09T15:33:27.114Z,0.86
2022-11-09T15:34:38.722Z,0.99
2022-11-09T15:35:48.852Z,0.84
2022-11-09T15:36:56.006Z,0.97
2022-11-09T15:37:59.106Z,0.68
2022-11-09T15:39:09.071Z,0.86
2022-11-09T15:40:15.047Z,0.61
2022-11-09T15:41:20.389Z,0.72
2022-11-09T15:42:23.905Z,0.82
2022-11-09T15:43:27.277Z,0.91
2022-11-09T15:44:30.402Z,0.93
2022-11-09T15:45:32.626Z,0.82
2022-11-09T15:46:42.816Z,0.80
2022-11-09T15:47:55.310Z,0.78
2022-11-09T15:49:07.641Z,0.76
2022-11-09T15:50:19.667Z,0.75
2022-11-09T15:51:22.757Z,0.67
2022-11-09T15:52:26.086Z,0.74
2022-11-09T15:53:28.312Z,0.80
2022-11-09T15:54:33.381Z,0.64
2022-11-09T15:55:35.477Z,0.83
2022-11-09T15:56:38.979Z,0.85
2022-11-09T15:57:42.483Z,0.83
2022-11-09T15:58:48.670Z,0.84
2022-11-09T15:59:51.720Z,0.70
2022-11-09T16:00:57.248Z,0.70
2022-11-09T16:02:00.734Z,0.82
2022-11-09T16:03:03.900Z,1.01
2022-11-09T16:04:07.294Z,0.73
2022-11-09T16:05:10.543Z,0.75
2022-11-09T16:06:19.346Z,0.92
2022-11-09T16:07:22.565Z,0.90
2022-11-09T16:08:25.859Z,1.15
2022-11-09T16:09:29.026Z,1.12
2022-11-09T16:10:37.262Z,0.87
2022-11-09T16:11:40.604Z,0.81
2022-11-09T16:12:46.370Z,0.70
2022-11-09T16:13:49.745Z,1.02
2022-11-09T16:14:52.938Z,1.11
2022-11-09T16:16:02.333Z,0.81
2022-11-09T16:17:07.734Z,0.82
2022-11-09T16:18:10.608Z,0.82
2022-11-09T16:19:15.564Z,0.78
2022-11-09T16:20:38.526Z,0.87
2022-11-09T16:21:41.213Z,0.70
2022-11-09T16:22:50.220Z,0.80
2022-11-09T16:23:58.105Z,0.73
2022-11-09T16:25:01.905Z,0.71
2022-11-09T16:26:10.979Z,0.92
2022-11-09T16:27:35.242Z,0.96
2022-11-09T16:28:40.182Z,0.92
2022-11-09T16:29:42.794Z,1.08
2022-11-09T16:30:47.055Z,1.03
2022-11-09T16:31:52.229Z,0.96
2022-11-09T16:32:57.218Z,1.03
2022-11-09T16:33:59.314Z,1.02
2022-11-09T16:35:25.609Z,1.00
2022-11-09T16:36:27.173Z,1.11
2022-11-09T16:37:33.203Z,1.00
2022-11-09T16:38:41.475Z,1.08
2022-11-09T16:39:44.919Z,1.15
2022-11-09T16:40:49.765Z,1.30
2022-11-09T16:41:53.580Z,1.24
2022-11-09T16:42:56.256Z,1.10
2022-11-09T16:43:59.749Z,1.38
2022-11-09T16:45:09.107Z,1.37
2022-11-09T16:46:19.154Z,1.66
2022-11-09T16:47:21.921Z,1.31
2022-11-09T16:48:26.429Z,1.06
2022-11-09T16:49:29.852Z,1.15
2022-11-09T16:50:33.027Z,1.09
2022-11-09T16:51:36.334Z,1.01
2022-11-09T16:52:50.275Z,1.15
2022-11-09T16:53:53.662Z,1.13
2022-11-09T16:54:56.014Z,1.50
2022-11-09T16:55:59.242Z,1.31
2022-11-09T16:57:03.202Z,1.25
2022-11-09T16:58:05.558Z,1.41
2022-11-09T16:59:08.696Z,1.13
2022-11-09T17:00:13.888Z,1.37
2022-11-09T17:01:20.735Z,1.35
2022-11-09T17:02:27.088Z,1.17
2022-11-09T17:03:32.602Z,1.23
2022-11-09T17:04:35.763Z,1.27
2022-11-09T17:05:38.946Z,1.08
2022-11-09T17:06:42.118Z,1.28
2022-11-09T17:07:47.620Z,1.35
2022-11-09T17:08:50.830Z,1.16
2022-11-09T17:09:53.937Z,1.13
2022-11-09T17:10:57.060Z,1.28
2022-11-09T17:11:59.156Z,1.38
2022-11-09T17:13:02.362Z,1.35
2022-11-09T17:14:05.526Z,1.30
2022-11-09T17:15:09.896Z,1.33
2022-11-09T17:16:16.789Z,1.20
2022-11-09T17:17:22.836Z,1.43
2022-11-09T17:18:26.390Z,1.54
2022-11-09T17:19:34.134Z,1.29
2022-11-09T17:20:43.031Z,1.39
2022-11-09T17:21:46.223Z,1.36
2022-11-09T17:22:48.478Z,1.61
2022-11-09T17:23:51.713Z,1.49
2022-11-09T17:24:54.838Z,1.59
2022-11-09T17:25:58.902Z,1.49
2022-11-09T17:27:02.072Z,1.58
2022-11-09T17:28:05.536Z,1.67
2022-11-09T17:29:08.701Z,1.48
2022-11-09T17:30:12.342Z,2.03
2022-11-09T17:31:16.138Z,2.13
2022-11-09T17:32:22.438Z,1.47
2022-11-09T17:33:25.817Z,1.73